sensor_id;sensor_type;location;lat;lon;timestamp;pressure;altitude;pressure_sealevel;temperature;humidity
77939;BME280;67136;47.546;21.630;2023-04-22T00:01:21;99928.22;;;10.71;49.28
77939;BME280;67136;47.546;21.630;2023-04-22T00:04:34;99927.13;;;10.64;49.30
77939;BME280;67136;47.546;21.630;2023-04-22T00:07:43;99935.66;;;10.56;49.38
77939;BME280;67136;47.546;21.630;2023-04-22T00:10:56;99933.31;;;10.53;49.66
77939;BME280;67136;47.546;21.630;2023-04-22T00:14:17;99932.19;;;10.46;49.42
77939;BME280;67136;47.546;21.630;2023-04-22T00:17:38;99932.56;;;10.42;50.08
77939;BME280;67136;47.546;21.630;2023-04-22T00:20:51;99933.94;;;10.36;49.77
77939;BME280;67136;47.546;21.630;2023-04-22T00:23:59;99936.28;;;10.30;49.93
77939;BME280;67136;47.546;21.630;2023-04-22T00:27:20;99931.56;;;10.24;50.01
77939;BME280;67136;47.546;21.630;2023-04-22T00:30:48;99934.03;;;10.16;50.24
77939;BME280;67136;47.546;21.630;2023-04-22T00:34:03;99932.75;;;10.10;50.29
77939;BME280;67136;47.546;21.630;2023-04-22T00:37:41;99934.19;;;10.03;50.87
77939;BME280;67136;47.546;21.630;2023-04-22T00:41:02;99930.19;;;9.89;51.08
77939;BME280;67136;47.546;21.630;2023-04-22T00:44:26;99930.56;;;9.85;51.19
77939;BME280;67136;47.546;21.630;2023-04-22T00:47:37;99928.19;;;9.72;51.65
77939;BME280;67136;47.546;21.630;2023-04-22T00:50:50;99921.38;;;9.60;51.56
77939;BME280;67136;47.546;21.630;2023-04-22T00:53:58;99927.44;;;9.61;51.89
77939;BME280;67136;47.546;21.630;2023-04-22T00:57:04;99921.56;;;9.48;51.85
77939;BME280;67136;47.546;21.630;2023-04-22T01:04:32;99927.00;;;9.35;51.88
77939;BME280;67136;47.546;21.630;2023-04-22T01:07:47;99923.94;;;9.30;52.13
77939;BME280;67136;47.546;21.630;2023-04-22T01:10:56;99929.53;;;9.26;51.99
77939;BME280;67136;47.546;21.630;2023-04-22T01:14:09;99931.38;;;9.14;52.23
77939;BME280;67136;47.546;21.630;2023-04-22T01:17:16;99923.53;;;9.14;52.77
77939;BME280;67136;47.546;21.630;2023-04-22T01:20:29;99926.78;;;9.07;52.66
77939;BME280;67136;47.546;21.630;2023-04-22T01:23:41;99930.28;;;8.96;52.89
77939;BME280;67136;47.546;21.630;2023-04-22T01:27:36;99931.69;;;9.00;52.85
77939;BME280;67136;47.546;21.630;2023-04-22T01:30:47;99937.12;;;8.97;52.85
77939;BME280;67136;47.546;21.630;2023-04-22T01:33:54;99937.66;;;8.91;52.68
77939;BME280;67136;47.546;21.630;2023-04-22T01:37:21;99944.44;;;8.82;52.88
77939;BME280;67136;47.546;21.630;2023-04-22T01:40:32;99943.03;;;8.78;53.09
77939;BME280;67136;47.546;21.630;2023-04-22T01:43:43;99943.50;;;8.72;53.01
77939;BME280;67136;47.546;21.630;2023-04-22T01:47:02;99945.06;;;8.64;53.23
77939;BME280;67136;47.546;21.630;2023-04-22T01:50:28;99950.19;;;8.54;53.38
77939;BME280;67136;47.546;21.630;2023-04-22T01:53:50;99942.50;;;8.53;53.58
77939;BME280;67136;47.546;21.630;2023-04-22T01:57:07;99939.19;;;8.51;53.94
77939;BME280;67136;47.546;21.630;2023-04-22T02:00:27;99947.72;;;8.42;54.02
77939;BME280;67136;47.546;21.630;2023-04-22T02:07:12;99940.66;;;8.33;54.05
77939;BME280;67136;47.546;21.630;2023-04-22T02:10:23;99949.41;;;8.32;54.50
77939;BME280;67136;47.546;21.630;2023-04-22T02:13:36;99942.66;;;8.29;54.76
77939;BME280;67136;47.546;21.630;2023-04-22T02:16:55;99943.59;;;8.28;54.30
77939;BME280;67136;47.546;21.630;2023-04-22T02:20:07;99945.16;;;8.20;54.71
77939;BME280;67136;47.546;21.630;2023-04-22T02:23:19;99939.56;;;8.13;54.95
77939;BME280;67136;47.546;21.630;2023-04-22T02:26:30;99940.06;;;8.07;54.90
77939;BME280;67136;47.546;21.630;2023-04-22T02:29:39;99942.56;;;7.98;55.07
77939;BME280;67136;47.546;21.630;2023-04-22T02:32:44;99938.50;;;7.94;55.54
77939;BME280;67136;47.546;21.630;2023-04-22T02:35:49;99935.19;;;7.92;56.00
77939;BME280;67136;47.546;21.630;2023-04-22T02:38:58;99936.97;;;7.80;56.09
77939;BME280;67136;47.546;21.630;2023-04-22T02:42:29;99933.91;;;7.75;56.24
77939;BME280;67136;47.546;21.630;2023-04-22T02:45:45;99937.56;;;7.73;56.60
77939;BME280;67136;47.546;21.630;2023-04-22T02:48:52;99932.69;;;7.68;56.64
77939;BME280;67136;47.546;21.630;2023-04-22T02:52:07;99934.22;;;7.59;56.83
77939;BME280;67136;47.546;21.630;2023-04-22T02:55:28;99934.59;;;7.55;57.43
77939;BME280;67136;47.546;21.630;2023-04-22T02:58:48;99933.25;;;7.49;57.53
77939;BME280;67136;47.546;21.630;2023-04-22T03:01:56;99937.28;;;7.42;57.99
77939;BME280;67136;47.546;21.630;2023-04-22T03:05:18;99942.69;;;7.39;58.50
77939;BME280;67136;47.546;21.630;2023-04-22T03:08:34;99949.91;;;7.36;58.30
77939;BME280;67136;47.546;21.630;2023-04-22T03:11:40;99956.78;;;7.37;58.08
77939;BME280;67136;47.546;21.630;2023-04-22T03:14:54;99948.37;;;7.33;58.88
77939;BME280;67136;47.546;21.630;2023-04-22T03:18:06;99949.03;;;7.24;58.90
77939;BME280;67136;47.546;21.630;2023-04-22T03:21:25;99955.87;;;7.14;59.26
77939;BME280;67136;47.546;21.630;2023-04-22T03:24:35;99962.87;;;7.14;59.38
77939;BME280;67136;47.546;21.630;2023-04-22T03:28:03;99963.06;;;7.11;59.70
77939;BME280;67136;47.546;21.630;2023-04-22T03:31:16;99964.56;;;7.02;59.58
77939;BME280;67136;47.546;21.630;2023-04-22T03:34:31;99971.44;;;7.03;59.69
77939;BME280;67136;47.546;21.630;2023-04-22T03:37:50;99975.56;;;7.06;59.85
77939;BME280;67136;47.546;21.630;2023-04-22T03:41:13;99977.84;;;7.10;59.68
77939;BME280;67136;47.546;21.630;2023-04-22T03:44:21;99973.31;;;7.01;60.21
77939;BME280;67136;47.546;21.630;2023-04-22T03:47:41;99979.84;;;7.07;60.43
77939;BME280;67136;47.546;21.630;2023-04-22T03:50:48;99983.97;;;7.09;59.85
77939;BME280;67136;47.546;21.630;2023-04-22T03:54:09;99987.53;;;7.08;60.14
77939;BME280;67136;47.546;21.630;2023-04-22T03:57:21;99989.28;;;7.08;59.92
77939;BME280;67136;47.546;21.630;2023-04-22T04:00:43;99993.44;;;7.10;59.81
77939;BME280;67136;47.546;21.630;2023-04-22T04:03:58;99992.03;;;7.17;60.06
77939;BME280;67136;47.546;21.630;2023-04-22T04:07:13;99993.94;;;7.15;59.93
77939;BME280;67136;47.546;21.630;2023-04-22T04:10:31;100000.81;;;7.27;60.04
77939;BME280;67136;47.546;21.630;2023-04-22T04:13:51;99998.75;;;7.32;59.51
77939;BME280;67136;47.546;21.630;2023-04-22T04:16:58;100003.28;;;7.52;59.43
77939;BME280;67136;47.546;21.630;2023-04-22T04:20:04;100010.63;;;7.58;59.02
77939;BME280;67136;47.546;21.630;2023-04-22T04:23:28;100016.56;;;7.72;58.78
77939;BME280;67136;47.546;21.630;2023-04-22T04:26:37;100021.34;;;7.89;58.63
77939;BME280;67136;47.546;21.630;2023-04-22T04:29:52;100027.50;;;7.99;57.94
77939;BME280;67136;47.546;21.630;2023-04-22T04:33:08;100020.19;;;8.15;57.67
77939;BME280;67136;47.546;21.630;2023-04-22T04:36:27;100019.25;;;8.27;57.11
77939;BME280;67136;47.546;21.630;2023-04-22T04:42:57;100026.56;;;8.66;55.96
77939;BME280;67136;47.546;21.630;2023-04-22T04:46:01;100031.28;;;8.83;55.62
77939;BME280;67136;47.546;21.630;2023-04-22T04:49:16;100030.66;;;9.02;55.13
77939;BME280;67136;47.546;21.630;2023-04-22T04:52:32;100034.25;;;9.21;54.48
77939;BME280;67136;47.546;21.630;2023-04-22T04:55:50;100032.00;;;9.48;53.58
77939;BME280;67136;47.546;21.630;2023-04-22T04:59:06;100040.94;;;9.66;53.29
77939;BME280;67136;47.546;21.630;2023-04-22T05:02:14;100028.19;;;9.93;52.10
77939;BME280;67136;47.546;21.630;2023-04-22T05:05:49;100033.31;;;10.16;52.04
77939;BME280;67136;47.546;21.630;2023-04-22T05:08:55;100033.69;;;10.41;50.95
77939;BME280;67136;47.546;21.630;2023-04-22T05:12:14;100030.47;;;10.58;50.42
77939;BME280;67136;47.546;21.630;2023-04-22T05:15:29;100029.97;;;10.83;50.19
77939;BME280;67136;47.546;21.630;2023-04-22T05:18:34;100034.41;;;11.02;49.61
77939;BME280;67136;47.546;21.630;2023-04-22T05:21:55;100037.59;;;11.15;49.48
77939;BME280;67136;47.546;21.630;2023-04-22T05:25:23;100041.88;;;11.35;48.68
77939;BME280;67136;47.546;21.630;2023-04-22T05:28:35;100043.25;;;11.58;48.46
77939;BME280;67136;47.546;21.630;2023-04-22T05:31:51;100036.38;;;11.76;48.00
77939;BME280;67136;47.546;21.630;2023-04-22T05:35:13;100039.94;;;11.94;47.06
77939;BME280;67136;47.546;21.630;2023-04-22T05:38:34;100040.13;;;12.20;46.70
77939;BME280;67136;47.546;21.630;2023-04-22T05:41:39;100045.41;;;12.47;46.40
77939;BME280;67136;47.546;21.630;2023-04-22T05:44:48;100041.00;;;12.75;45.41
77939;BME280;67136;47.546;21.630;2023-04-22T05:47:53;100040.03;;;13.03;45.29
77939;BME280;67136;47.546;21.630;2023-04-22T05:51:06;100037.66;;;13.27;44.25
77939;BME280;67136;47.546;21.630;2023-04-22T05:54:24;100039.16;;;13.47;43.93
77939;BME280;67136;47.546;21.630;2023-04-22T05:57:35;100042.16;;;13.52;43.34
77939;BME280;67136;47.546;21.630;2023-04-22T06:00:45;100044.13;;;13.50;43.05
77939;BME280;67136;47.546;21.630;2023-04-22T06:03:54;100048.16;;;13.44;42.66
77939;BME280;67136;47.546;21.630;2023-04-22T06:07:07;100056.94;;;13.53;42.98
77939;BME280;67136;47.546;21.630;2023-04-22T06:10:18;100064.03;;;13.78;42.62
77939;BME280;67136;47.546;21.630;2023-04-22T06:13:27;100053.72;;;14.02;41.92
77939;BME280;67136;47.546;21.630;2023-04-22T06:16:35;100060.31;;;14.06;41.55
77939;BME280;67136;47.546;21.630;2023-04-22T06:19:42;100058.00;;;14.54;41.03
77939;BME280;67136;47.546;21.630;2023-04-22T06:22:55;100058.25;;;15.19;40.16
77939;BME280;67136;47.546;21.630;2023-04-22T06:26:10;100068.16;;;16.13;38.70
77939;BME280;67136;47.546;21.630;2023-04-22T06:29:34;100056.81;;;17.06;36.92
77939;BME280;67136;47.546;21.630;2023-04-22T06:32:43;100064.16;;;17.57;35.45
77939;BME280;67136;47.546;21.630;2023-04-22T06:36:00;100060.25;;;17.68;34.70
77939;BME280;67136;47.546;21.630;2023-04-22T06:39:05;100061.91;;;17.69;34.71
77939;BME280;67136;47.546;21.630;2023-04-22T06:42:13;100064.00;;;17.73;35.11
77939;BME280;67136;47.546;21.630;2023-04-22T06:45:20;100057.97;;;17.65;35.11
77939;BME280;67136;47.546;21.630;2023-04-22T06:48:23;100065.72;;;17.35;35.61
77939;BME280;67136;47.546;21.630;2023-04-22T06:51:37;100064.81;;;17.28;36.03
77939;BME280;67136;47.546;21.630;2023-04-22T06:54:54;100069.19;;;17.67;35.98
77939;BME280;67136;47.546;21.630;2023-04-22T06:58:16;100068.06;;;17.84;35.20
77939;BME280;67136;47.546;21.630;2023-04-22T07:01:28;100071.75;;;17.75;34.26
77939;BME280;67136;47.546;21.630;2023-04-22T07:04:36;100068.34;;;17.89;34.13
77939;BME280;67136;47.546;21.630;2023-04-22T07:07:45;100068.56;;;18.02;33.95
77939;BME280;67136;47.546;21.630;2023-04-22T07:10:59;100066.81;;;18.46;33.08
77939;BME280;67136;47.546;21.630;2023-04-22T07:14:09;100064.63;;;18.64;32.43
77939;BME280;67136;47.546;21.630;2023-04-22T07:17:16;100065.22;;;18.22;33.22
77939;BME280;67136;47.546;21.630;2023-04-22T07:20:30;100070.47;;;18.08;33.60
77939;BME280;67136;47.546;21.630;2023-04-22T07:23:40;100077.75;;;18.72;32.49
77939;BME280;67136;47.546;21.630;2023-04-22T07:26:45;100068.38;;;19.05;32.02
77939;BME280;67136;47.546;21.630;2023-04-22T07:29:55;100076.19;;;18.92;31.29
77939;BME280;67136;47.546;21.630;2023-04-22T07:33:04;100076.06;;;19.71;30.18
77939;BME280;67136;47.546;21.630;2023-04-22T07:36:11;100077.75;;;20.89;28.30
77939;BME280;67136;47.546;21.630;2023-04-22T07:39:21;100078.78;;;20.95;27.53
77939;BME280;67136;47.546;21.630;2023-04-22T07:42:32;100074.31;;;21.75;26.28
77939;BME280;67136;47.546;21.630;2023-04-22T07:45:55;100074.03;;;21.31;26.04
77939;BME280;67136;47.546;21.630;2023-04-22T07:49:05;100076.03;;;21.16;26.56
77939;BME280;67136;47.546;21.630;2023-04-22T07:52:11;100070.09;;;22.90;24.09
77939;BME280;67136;47.546;21.630;2023-04-22T07:55:19;100077.84;;;24.29;22.53
77939;BME280;67136;47.546;21.630;2023-04-22T07:58:21;100077.59;;;24.13;22.53
77939;BME280;67136;47.546;21.630;2023-04-22T08:01:28;100084.78;;;24.80;21.17
77939;BME280;67136;47.546;21.630;2023-04-22T08:04:39;100077.59;;;26.56;19.92
77939;BME280;67136;47.546;21.630;2023-04-22T08:07:46;100072.13;;;25.64;19.16
77939;BME280;67136;47.546;21.630;2023-04-22T08:10:50;100074.94;;;26.33;19.46
77939;BME280;67136;47.546;21.630;2023-04-22T08:13:53;100075.66;;;28.21;17.33
77939;BME280;67136;47.546;21.630;2023-04-22T08:17:19;100076.16;;;28.01;17.69
77939;BME280;67136;47.546;21.630;2023-04-22T08:20:24;100079.28;;;29.29;17.35
77939;BME280;67136;47.546;21.630;2023-04-22T08:23:28;100068.94;;;30.06;16.31
77939;BME280;67136;47.546;21.630;2023-04-22T08:26:36;100080.34;;;30.50;15.63
77939;BME280;67136;47.546;21.630;2023-04-22T08:29:44;100078.88;;;29.42;15.35
77939;BME280;67136;47.546;21.630;2023-04-22T08:32:55;100078.47;;;28.85;16.01
77939;BME280;67136;47.546;21.630;2023-04-22T08:36:02;100070.59;;;27.91;16.70
77939;BME280;67136;47.546;21.630;2023-04-22T08:39:07;100078.91;;;29.69;15.49
77939;BME280;67136;47.546;21.630;2023-04-22T08:42:26;100074.22;;;30.22;15.17
77939;BME280;67136;47.546;21.630;2023-04-22T08:45:34;100086.59;;;29.34;15.03
77939;BME280;67136;47.546;21.630;2023-04-22T08:48:41;100069.88;;;30.63;14.38
77939;BME280;67136;47.546;21.630;2023-04-22T08:51:50;100074.97;;;31.01;14.30
77939;BME280;67136;47.546;21.630;2023-04-22T08:54:57;100070.50;;;32.57;13.33
77939;BME280;67136;47.546;21.630;2023-04-22T08:58:11;100074.03;;;33.65;12.05
77939;BME280;67136;47.546;21.630;2023-04-22T09:01:27;100068.50;;;31.12;12.82
77939;BME280;67136;47.546;21.630;2023-04-22T09:04:37;100067.87;;;30.38;13.35
77939;BME280;67136;47.546;21.630;2023-04-22T09:07:45;100064.94;;;30.45;13.66
77939;BME280;67136;47.546;21.630;2023-04-22T09:10:50;100066.53;;;30.88;13.79
77939;BME280;67136;47.546;21.630;2023-04-22T09:13:56;100076.78;;;33.60;12.39
77939;BME280;67136;47.546;21.630;2023-04-22T09:17:08;100067.87;;;32.02;11.74
77939;BME280;67136;47.546;21.630;2023-04-22T09:20:25;100068.59;;;32.58;11.31
77939;BME280;67136;47.546;21.630;2023-04-22T09:23:33;100064.59;;;32.25;11.62
77939;BME280;67136;47.546;21.630;2023-04-22T09:26:45;100069.09;;;31.29;12.04
77939;BME280;67136;47.546;21.630;2023-04-22T09:30:05;100061.22;;;31.18;12.00
77939;BME280;67136;47.546;21.630;2023-04-22T09:33:24;100060.87;;;30.94;12.58
77939;BME280;67136;47.546;21.630;2023-04-22T09:36:30;100068.34;;;31.64;11.52
77939;BME280;67136;47.546;21.630;2023-04-22T09:39:41;100053.00;;;30.36;12.50
77939;BME280;67136;47.546;21.630;2023-04-22T09:42:56;100048.25;;;30.58;12.94
77939;BME280;67136;47.546;21.630;2023-04-22T09:46:04;100058.59;;;32.33;11.86
77939;BME280;67136;47.546;21.630;2023-04-22T09:49:25;100047.00;;;32.08;11.73
77939;BME280;67136;47.546;21.630;2023-04-22T09:52:44;100049.72;;;32.08;11.67
77939;BME280;67136;47.546;21.630;2023-04-22T09:55:49;100042.81;;;32.70;11.62
77939;BME280;67136;47.546;21.630;2023-04-22T09:59:05;100036.72;;;32.10;11.84
77939;BME280;67136;47.546;21.630;2023-04-22T10:02:29;100045.72;;;32.94;11.31
77939;BME280;67136;47.546;21.630;2023-04-22T10:05:35;100033.69;;;31.31;12.18
77939;BME280;67136;47.546;21.630;2023-04-22T10:12:29;100024.47;;;33.94;10.77
77939;BME280;67136;47.546;21.630;2023-04-22T10:15:46;100021.47;;;33.90;10.66
77939;BME280;67136;47.546;21.630;2023-04-22T10:18:54;100022.09;;;31.71;11.97
77939;BME280;67136;47.546;21.630;2023-04-22T10:22:02;100020.97;;;32.37;10.75
77939;BME280;67136;47.546;21.630;2023-04-22T10:25:22;100019.25;;;32.71;10.83
77939;BME280;67136;47.546;21.630;2023-04-22T10:28:52;100014.75;;;33.05;10.87
77939;BME280;67136;47.546;21.630;2023-04-22T10:32:42;100022.91;;;32.16;10.99
77939;BME280;67136;47.546;21.630;2023-04-22T10:36:27;100013.19;;;32.05;11.06
77939;BME280;67136;47.546;21.630;2023-04-22T10:39:42;100019.44;;;32.90;10.63
77939;BME280;67136;47.546;21.630;2023-04-22T10:42:50;100009.41;;;34.30;9.99
77939;BME280;67136;47.546;21.630;2023-04-22T10:46:00;100010.66;;;31.13;11.62
77939;BME280;67136;47.546;21.630;2023-04-22T10:49:12;100008.38;;;30.75;12.17
77939;BME280;67136;47.546;21.630;2023-04-22T10:52:31;100005.28;;;31.18;12.22
77939;BME280;67136;47.546;21.630;2023-04-22T10:55:55;100007.88;;;32.69;10.98
77939;BME280;67136;47.546;21.630;2023-04-22T10:59:19;100002.91;;;31.52;11.86
77939;BME280;67136;47.546;21.630;2023-04-22T11:02:24;100005.03;;;30.06;13.25
77939;BME280;67136;47.546;21.630;2023-04-22T11:05:31;100007.97;;;28.67;14.12
77939;BME280;67136;47.546;21.630;2023-04-22T11:09:09;100000.88;;;26.95;14.86
77939;BME280;67136;47.546;21.630;2023-04-22T11:15:49;99995.09;;;26.12;15.90
77939;BME280;67136;47.546;21.630;2023-04-22T11:19:09;99989.69;;;25.66;15.96
77939;BME280;67136;47.546;21.630;2023-04-22T11:22:27;99992.34;;;29.39;13.21
77939;BME280;67136;47.546;21.630;2023-04-22T11:25:41;99998.78;;;32.30;11.43
77939;BME280;67136;47.546;21.630;2023-04-22T11:28:58;99998.31;;;31.52;11.56
77939;BME280;67136;47.546;21.630;2023-04-22T11:32:13;99995.56;;;31.17;12.27
77939;BME280;67136;47.546;21.630;2023-04-22T11:35:29;99996.69;;;30.55;12.37
77939;BME280;67136;47.546;21.630;2023-04-22T11:38:36;100000.37;;;28.42;14.00
77939;BME280;67136;47.546;21.630;2023-04-22T11:42:00;99992.75;;;26.78;15.61
77939;BME280;67136;47.546;21.630;2023-04-22T11:45:10;99993.87;;;25.62;16.69
77939;BME280;67136;47.546;21.630;2023-04-22T11:48:22;99989.28;;;25.39;17.21
77939;BME280;67136;47.546;21.630;2023-04-22T11:51:50;99986.69;;;24.55;17.79
77939;BME280;67136;47.546;21.630;2023-04-22T11:55:00;99991.72;;;25.00;17.72
77939;BME280;67136;47.546;21.630;2023-04-22T11:58:24;100001.16;;;24.84;18.06
77939;BME280;67136;47.546;21.630;2023-04-22T12:01:40;99983.66;;;24.70;18.01
77939;BME280;67136;47.546;21.630;2023-04-22T12:05:00;99982.12;;;24.92;17.96
77939;BME280;67136;47.546;21.630;2023-04-22T12:08:20;99990.47;;;24.84;17.37
77939;BME280;67136;47.546;21.630;2023-04-22T12:11:28;99982.41;;;24.73;17.59
77939;BME280;67136;47.546;21.630;2023-04-22T12:14:52;99979.53;;;25.45;17.27
77939;BME280;67136;47.546;21.630;2023-04-22T12:18:15;99982.19;;;27.78;15.42
77939;BME280;67136;47.546;21.630;2023-04-22T12:21:24;99976.81;;;29.19;12.91
77939;BME280;67136;47.546;21.630;2023-04-22T12:24:35;99979.34;;;32.13;11.87
77939;BME280;67136;47.546;21.630;2023-04-22T12:27:42;99972.66;;;34.37;10.45
77939;BME280;67136;47.546;21.630;2023-04-22T12:30:51;99974.75;;;34.22;10.67
77939;BME280;67136;47.546;21.630;2023-04-22T12:34:02;99975.63;;;33.88;10.55
77939;BME280;67136;47.546;21.630;2023-04-22T12:37:16;99969.38;;;34.17;10.16
77939;BME280;67136;47.546;21.630;2023-04-22T12:40:37;99972.06;;;31.98;10.99
77939;BME280;67136;47.546;21.630;2023-04-22T12:43:47;99961.56;;;31.87;11.42
77939;BME280;67136;47.546;21.630;2023-04-22T12:47:04;99961.75;;;28.96;13.29
77939;BME280;67136;47.546;21.630;2023-04-22T12:50:14;99967.00;;;26.03;15.53
77939;BME280;67136;47.546;21.630;2023-04-22T12:53:50;99961.38;;;26.39;15.60
77939;BME280;67136;47.546;21.630;2023-04-22T12:57:03;99954.97;;;25.48;16.32
77939;BME280;67136;47.546;21.630;2023-04-22T13:00:12;99946.19;;;24.70;16.55
77939;BME280;67136;47.546;21.630;2023-04-22T13:03:33;99960.47;;;24.10;17.04
77939;BME280;67136;47.546;21.630;2023-04-22T13:06:49;99958.97;;;23.71;17.52
77939;BME280;67136;47.546;21.630;2023-04-22T13:09:57;99955.75;;;23.87;17.63
77939;BME280;67136;47.546;21.630;2023-04-22T13:13:14;99948.91;;;23.91;17.74
77939;BME280;67136;47.546;21.630;2023-04-22T13:16:23;99954.22;;;23.73;17.63
77939;BME280;67136;47.546;21.630;2023-04-22T13:19:30;99952.75;;;23.77;17.93
77939;BME280;67136;47.546;21.630;2023-04-22T13:22:40;99948.88;;;23.73;18.27
77939;BME280;67136;47.546;21.630;2023-04-22T13:25:43;99956.78;;;23.86;18.21
77939;BME280;67136;47.546;21.630;2023-04-22T13:29:00;99952.44;;;23.67;18.31
77939;BME280;67136;47.546;21.630;2023-04-22T13:32:17;99944.31;;;25.30;16.76
77939;BME280;67136;47.546;21.630;2023-04-22T13:35:30;99943.78;;;27.00;15.37
77939;BME280;67136;47.546;21.630;2023-04-22T13:38:35;99949.50;;;28.19;13.72
77939;BME280;67136;47.546;21.630;2023-04-22T13:41:48;99942.22;;;28.84;13.41
77939;BME280;67136;47.546;21.630;2023-04-22T13:45:22;99941.91;;;28.54;13.30
77939;BME280;67136;47.546;21.630;2023-04-22T13:48:33;99939.94;;;29.93;12.42
77939;BME280;67136;47.546;21.630;2023-04-22T13:51:36;99941.03;;;29.92;12.53
77939;BME280;67136;47.546;21.630;2023-04-22T13:54:49;99939.53;;;30.16;12.02
77939;BME280;67136;47.546;21.630;2023-04-22T13:57:59;99930.09;;;28.17;12.90
77939;BME280;67136;47.546;21.630;2023-04-22T14:01:18;99929.75;;;30.00;12.09
77939;BME280;67136;47.546;21.630;2023-04-22T14:04:30;99927.72;;;31.19;11.38
77939;BME280;67136;47.546;21.630;2023-04-22T14:07:32;99934.50;;;29.83;12.62
77939;BME280;67136;47.546;21.630;2023-04-22T14:10:48;99934.69;;;28.60;13.96
77939;BME280;67136;47.546;21.630;2023-04-22T14:14:09;99939.19;;;26.83;15.74
77939;BME280;67136;47.546;21.630;2023-04-22T14:17:18;99941.00;;;25.69;16.53
77939;BME280;67136;47.546;21.630;2023-04-22T14:20:36;99938.28;;;24.93;16.89
77939;BME280;67136;47.546;21.630;2023-04-22T14:23:52;99952.97;;;24.54;17.04
77939;BME280;67136;47.546;21.630;2023-04-22T14:27:07;99949.50;;;23.93;18.24
77939;BME280;67136;47.546;21.630;2023-04-22T14:30:24;99949.88;;;23.54;18.28
77939;BME280;67136;47.546;21.630;2023-04-22T14:33:38;99948.47;;;23.94;17.66
77939;BME280;67136;47.546;21.630;2023-04-22T14:36:45;99950.19;;;23.64;17.87
77939;BME280;67136;47.546;21.630;2023-04-22T14:39:53;99937.41;;;23.17;18.36
77939;BME280;67136;47.546;21.630;2023-04-22T14:43:06;99941.13;;;22.85;18.77
77939;BME280;67136;47.546;21.630;2023-04-22T14:46:18;99941.16;;;22.72;18.78
77939;BME280;67136;47.546;21.630;2023-04-22T14:49:27;99942.84;;;21.76;19.59
77939;BME280;67136;47.546;21.630;2023-04-22T14:52:58;99942.22;;;21.74;19.77
77939;BME280;67136;47.546;21.630;2023-04-22T14:56:17;99945.34;;;21.58;20.20
77939;BME280;67136;47.546;21.630;2023-04-22T14:59:29;99941.84;;;21.77;19.90
77939;BME280;67136;47.546;21.630;2023-04-22T15:02:47;99945.94;;;21.86;19.81
77939;BME280;67136;47.546;21.630;2023-04-22T15:05:55;99941.22;;;21.56;20.19
77939;BME280;67136;47.546;21.630;2023-04-22T15:09:20;99936.53;;;21.38;20.07
77939;BME280;67136;47.546;21.630;2023-04-22T15:12:37;99931.81;;;21.27;20.13
77939;BME280;67136;47.546;21.630;2023-04-22T15:15:48;99939.16;;;21.12;20.28
77939;BME280;67136;47.546;21.630;2023-04-22T15:19:00;99939.87;;;20.80;20.88
77939;BME280;67136;47.546;21.630;2023-04-22T15:22:11;99936.19;;;20.74;20.94
77939;BME280;67136;47.546;21.630;2023-04-22T15:25:13;99930.00;;;20.54;21.00
77939;BME280;67136;47.546;21.630;2023-04-22T15:28:29;99933.44;;;20.48;21.06
77939;BME280;67136;47.546;21.630;2023-04-22T15:31:34;99935.66;;;20.38;21.52
77939;BME280;67136;47.546;21.630;2023-04-22T15:34:58;99922.97;;;20.34;21.93
77939;BME280;67136;47.546;21.630;2023-04-22T15:38:06;99934.78;;;20.25;22.80
77939;BME280;67136;47.546;21.630;2023-04-22T15:41:18;99924.87;;;20.12;22.68
77939;BME280;67136;47.546;21.630;2023-04-22T15:44:28;99932.81;;;20.06;22.87
77939;BME280;67136;47.546;21.630;2023-04-22T15:47:39;99920.78;;;20.10;22.81
77939;BME280;67136;47.546;21.630;2023-04-22T15:50:56;99926.97;;;20.17;22.69
77939;BME280;67136;47.546;21.630;2023-04-22T15:54:21;99924.75;;;20.20;22.75
77939;BME280;67136;47.546;21.630;2023-04-22T15:57:32;99926.81;;;20.25;22.41
77939;BME280;67136;47.546;21.630;2023-04-22T16:00:42;99925.34;;;20.16;22.27
77939;BME280;67136;47.546;21.630;2023-04-22T16:03:52;99918.72;;;20.05;22.35
77939;BME280;67136;47.546;21.630;2023-04-22T16:07:04;99924.59;;;19.94;22.22
77939;BME280;67136;47.546;21.630;2023-04-22T16:10:10;99923.13;;;19.92;21.88
77939;BME280;67136;47.546;21.630;2023-04-22T16:13:25;99918.63;;;19.86;22.14
77939;BME280;67136;47.546;21.630;2023-04-22T16:16:44;99925.50;;;19.80;22.61
77939;BME280;67136;47.546;21.630;2023-04-22T16:20:10;99922.66;;;19.82;23.54
77939;BME280;67136;47.546;21.630;2023-04-22T16:23:24;99924.34;;;19.89;23.95
77939;BME280;67136;47.546;21.630;2023-04-22T16:26:59;99917.44;;;19.95;23.44
77939;BME280;67136;47.546;21.630;2023-04-22T16:30:18;99925.97;;;19.90;23.84
77939;BME280;67136;47.546;21.630;2023-04-22T16:33:29;99917.59;;;19.87;23.92
77939;BME280;67136;47.546;21.630;2023-04-22T16:36:45;99917.78;;;19.85;23.94
77939;BME280;67136;47.546;21.630;2023-04-22T16:39:59;99916.47;;;19.74;24.58
77939;BME280;67136;47.546;21.630;2023-04-22T16:43:09;99918.47;;;19.66;24.58
77939;BME280;67136;47.546;21.630;2023-04-22T16:46:24;99917.53;;;19.52;24.57
77939;BME280;67136;47.546;21.630;2023-04-22T16:49:40;99919.72;;;19.42;24.54
77939;BME280;67136;47.546;21.630;2023-04-22T16:52:45;99918.44;;;19.32;24.50
77939;BME280;67136;47.546;21.630;2023-04-22T16:56:00;99916.87;;;19.23;24.60
77939;BME280;67136;47.546;21.630;2023-04-22T16:59:10;99923.50;;;19.12;24.78
77939;BME280;67136;47.546;21.630;2023-04-22T17:02:16;99924.59;;;18.97;24.88
77939;BME280;67136;47.546;21.630;2023-04-22T17:05:24;99917.72;;;18.81;25.04
77939;BME280;67136;47.546;21.630;2023-04-22T17:08:47;99919.97;;;18.63;26.13